Time;durP1;ratioP1;P1;durP2;ratioP2;P2;SDS_P1;SDS_P2;PMS_P1;PMS_P2;Temp;Humidity;BMP_temperature;BMP_pressure;BME280_temperature;BME280_humidity;BME280_pressure;Samples;Min_cycle;Max_cycle;Signal;HPM_P1;HPM_P2
2022/11/18 00:01:11;;;;;;;5.63;3.25;;;21.30;58.00;;;;;;5035266;28;20420;-61
2022/11/18 00:03:38;;;;;;;5.73;3.40;;;21.30;57.90;;;;;;5037207;28;20498;-63
2022/11/18 00:06:05;;;;;;;6.10;3.08;;;21.30;58.00;;;;;;5037404;28;20473;-62
2022/11/18 00:08:31;;;;;;;5.60;3.33;;;21.30;58.00;;;;;;5037607;28;20146;-63
2022/11/18 00:10:56;;;;;;;6.05;3.28;;;21.30;58.00;;;;;;5037967;28;20377;-62
2022/11/18 00:16:09;;;;;;;5.47;3.13;;;21.20;58.00;;;;;;5031772;28;20036;-62
2022/11/18 00:18:36;;;;;;;5.70;2.95;;;21.20;58.00;;;;;;5031736;28;20036;-61
2022/11/18 00:21:02;;;;;;;4.88;3.17;;;21.20;58.00;;;;;;5035579;28;20037;-62
2022/11/18 00:23:28;;;;;;;5.75;3.50;;;21.20;57.90;;;;;;5033146;28;20032;-61
2022/11/18 00:25:54;;;;;;;4.72;3.15;;;21.20;58.00;;;;;;5038276;28;20473;-63
2022/11/18 00:28:20;;;;;;;5.57;3.13;;;21.20;58.00;;;;;;5033611;28;20116;-62
2022/11/18 00:30:45;;;;;;;6.20;3.20;;;21.20;58.00;;;;;;5025958;28;20060;-62
2022/11/18 00:33:11;;;;;;;5.35;3.17;;;21.20;58.00;;;;;;5028654;28;20103;-61
2022/11/18 00:35:37;;;;;;;5.25;3.03;;;21.20;58.00;;;;;;5032820;28;20083;-61
2022/11/18 00:38:02;;;;;;;4.68;2.83;;;21.20;58.00;;;;;;5031360;28;20106;-61
2022/11/18 00:40:28;;;;;;;5.60;3.20;;;21.20;58.00;;;;;;5041239;28;20029;-63
2022/11/18 00:42:55;;;;;;;5.15;2.92;;;21.20;58.00;;;;;;5039448;28;20017;-62
2022/11/18 00:45:21;;;;;;;4.55;2.72;;;21.10;58.00;;;;;;5034003;28;20486;-61
2022/11/18 00:47:47;;;;;;;5.00;3.10;;;21.20;58.00;;;;;;5041116;28;20475;-61
2022/11/18 00:50:13;;;;;;;4.53;2.83;;;21.10;58.00;;;;;;5036741;28;20053;-62
2022/11/18 00:52:39;;;;;;;5.90;3.10;;;21.10;58.00;;;;;;5034576;28;20516;-60
2022/11/18 00:55:04;;;;;;;4.82;2.85;;;21.10;58.00;;;;;;5034159;28;20053;-61
2022/11/18 00:57:30;;;;;;;4.72;2.75;;;21.10;58.00;;;;;;5033927;28;20440;-62
2022/11/18 00:59:55;;;;;;;4.70;2.70;;;21.10;57.90;;;;;;5039326;28;20025;-61
2022/11/18 01:02:21;;;;;;;4.38;2.67;;;21.10;58.00;;;;;;5042430;28;20025;-61
2022/11/18 01:04:47;;;;;;;4.90;2.80;;;21.10;58.00;;;;;;5037758;28;20369;-64
2022/11/18 01:07:12;;;;;;;4.47;2.80;;;21.10;58.00;;;;;;5033783;28;20095;-63
2022/11/18 01:09:38;;;;;;;4.72;2.70;;;21.10;58.00;;;;;;5036934;28;20395;-62
2022/11/18 01:14:48;;;;;;;4.25;2.38;;;21.10;58.00;;;;;;5031731;28;20064;-62
2022/11/18 01:17:14;;;;;;;3.67;2.42;;;21.10;58.00;;;;;;5039973;28;20060;-63
2022/11/18 01:19:39;;;;;;;4.45;2.90;;;21.10;58.00;;;;;;5042416;28;20034;-62
2022/11/18 01:22:05;;;;;;;5.13;2.92;;;21.10;58.00;;;;;;5037776;28;20048;-60
2022/11/18 01:24:32;;;;;;;4.18;2.47;;;21.10;58.10;;;;;;5038682;28;20078;-61
2022/11/18 01:26:58;;;;;;;4.80;2.60;;;21.00;58.10;;;;;;5039196;28;20491;-63
2022/11/18 01:29:23;;;;;;;4.15;2.42;;;21.00;58.50;;;;;;5035847;28;20032;-61
2022/11/18 01:31:49;;;;;;;4.80;2.80;;;21.00;58.00;;;;;;5035070;28;20389;-62
2022/11/18 01:34:15;;;;;;;4.18;2.50;;;21.00;58.10;;;;;;5033676;28;20061;-62
2022/11/18 01:36:40;;;;;;;4.20;2.60;;;21.00;58.10;;;;;;5033053;28;20041;-63
2022/11/18 01:39:06;;;;;;;3.83;2.30;;;21.00;58.10;;;;;;5048062;28;20047;-63
2022/11/18 01:41:32;;;;;;;3.90;2.50;;;21.00;58.10;;;;;;5029614;28;20029;-62
2022/11/18 01:43:59;;;;;;;3.33;2.28;;;21.00;58.10;;;;;;5033780;28;20034;-60
2022/11/18 01:46:28;;;;;;;3.95;2.55;;;21.00;58.10;;;;;;5037044;28;20469;-61
2022/11/18 01:49:20;;;;;;;3.47;2.15;;;21.00;58.10;;;;;;5034681;28;20499;-60
2022/11/18 01:51:54;;;;;;;4.10;2.70;;;21.00;58.10;;;;;;5033673;28;20033;-62
2022/11/18 01:54:29;;;;;;;5.18;3.03;;;21.00;58.10;;;;;;5035967;28;20527;-61
2022/11/18 01:56:58;;;;;;;4.18;2.65;;;21.00;58.10;;;;;;5039904;28;20025;-63
2022/11/18 01:59:29;;;;;;;4.78;2.58;;;20.90;58.00;;;;;;5037866;28;20025;-61
2022/11/18 02:01:55;;;;;;;4.28;2.40;;;21.00;58.10;;;;;;5034175;28;20037;-61
2022/11/18 02:04:21;;;;;;;3.72;2.10;;;21.00;58.10;;;;;;5036765;28;20026;-62
2022/11/18 02:06:47;;;;;;;3.92;2.28;;;21.00;58.10;;;;;;5031847;28;20030;-61
2022/11/18 02:09:14;;;;;;;3.50;2.13;;;20.90;58.00;;;;;;5038315;28;20128;-61
2022/11/18 02:11:49;;;;;;;5.65;2.40;;;20.90;58.00;;;;;;5034014;28;20029;-61
2022/11/18 02:14:18;;;;;;;3.83;2.20;;;20.90;58.10;;;;;;5031870;28;20120;-61
2022/11/18 02:17:19;;;;;;;3.72;2.15;;;21.00;58.10;;;;;;5032439;28;20381;-62
2022/11/18 02:19:58;;;;;;;3.60;2.00;;;20.90;58.10;;;;;;4960417;28;20564;-62
2022/11/18 02:22:46;;;;;;;3.60;2.20;;;20.90;58.10;;;;;;5031836;28;20038;-61
2022/11/18 02:25:23;;;;;;;3.95;2.35;;;20.90;58.10;;;;;;5037594;28;20057;-61
2022/11/18 02:28:15;;;;;;;3.17;2.00;;;20.90;58.10;;;;;;5032998;28;20380;-62
2022/11/18 02:30:58;;;;;;;4.07;2.42;;;20.90;58.10;;;;;;5033464;28;20128;-61
2022/11/18 02:33:50;;;;;;;3.55;2.05;;;20.90;58.10;;;;;;5034422;28;20112;-61
2022/11/18 02:36:45;;;;;;;3.45;2.20;;;20.90;58.10;;;;;;5037861;28;20456;-61
2022/11/18 02:39:20;;;;;;;3.70;2.20;;;20.90;58.20;;;;;;5005470;28;20461;-62
2022/11/18 02:41:48;;;;;;;3.85;2.20;;;20.90;58.10;;;;;;5036703;28;20485;-62
2022/11/18 02:44:15;;;;;;;3.10;1.95;;;20.90;58.60;;;;;;5033962;28;20025;-62
2022/11/18 02:46:45;;;;;;;3.83;2.10;;;20.90;58.10;;;;;;5035748;28;20761;-64
2022/11/18 02:49:14;;;;;;;;;;;20.90;58.10;;;;;;5038059;28;20492;-62
2022/11/18 02:51:41;;;;;;;;;;;20.90;58.20;;;;;;5035623;28;20004;-61
2022/11/18 02:54:09;;;;;;;3.40;1.95;;;20.80;58.10;;;;;;5034772;28;20363;-63
2022/11/18 02:56:35;;;;;;;3.58;2.00;;;20.90;58.20;;;;;;5037597;28;20021;-62
2022/11/18 02:59:02;;;;;;;3.60;1.92;;;20.80;58.10;;;;;;5033046;28;20540;-60
2022/11/18 03:01:31;;;;;;;3.25;1.92;;;20.80;58.10;;;;;;5039617;28;20396;-62
2022/11/18 03:03:56;;;;;;;3.57;2.00;;;20.80;58.10;;;;;;5034755;28;20036;-63
2022/11/18 03:06:36;;;;;;;2.95;2.00;;;20.80;58.10;;;;;;5029508;28;20485;-61
2022/11/18 03:09:15;;;;;;;3.03;1.77;;;20.80;58.20;;;;;;5036732;28;20025;-63
2022/11/18 03:12:06;;;;;;;3.58;1.98;;;20.80;58.10;;;;;;5038232;28;20040;-62
2022/11/18 03:15:09;;;;;;;3.30;1.90;;;20.80;58.20;;;;;;5042384;28;20033;-62
2022/11/18 03:18:12;;;;;;;3.47;2.00;;;20.80;58.20;;;;;;5025749;28;20036;-61
2022/11/18 03:20:46;;;;;;;3.33;1.90;;;20.80;58.20;;;;;;5036145;28;20115;-62
2022/11/18 03:23:29;;;;;;;3.55;2.00;;;20.80;58.20;;;;;;5044072;28;20094;-64
2022/11/18 03:26:01;;;;;;;3.33;1.90;;;20.80;58.20;;;;;;5037236;28;20028;-60
2022/11/18 03:28:35;;;;;;;3.38;1.80;;;20.80;58.20;;;;;;5038017;28;20024;-62
2022/11/18 03:31:16;;;;;;;3.42;1.58;;;20.80;58.20;;;;;;5039750;28;20032;-62
2022/11/18 03:33:46;;;;;;;2.85;1.88;;;20.80;58.20;;;;;;5030389;28;20074;-61
2022/11/18 03:36:14;;;;;;;2.80;1.65;;;20.80;58.20;;;;;;5030125;28;20180;-63
2022/11/18 03:38:49;;;;;;;2.80;1.60;;;20.80;58.20;;;;;;5039155;28;20523;-62
2022/11/18 03:41:17;;;;;;;2.50;1.55;;;20.70;58.10;;;;;;5033600;28;20370;-62
2022/11/18 03:43:50;;;;;;;3.90;2.03;;;20.80;58.20;;;;;;5036864;28;20018;-63
2022/11/18 03:46:22;;;;;;;3.13;1.67;;;20.70;58.20;;;;;;5033432;28;20025;-61
2022/11/18 03:48:52;;;;;;;3.38;1.80;;;20.70;58.20;;;;;;5033835;28;20021;-61
2022/11/18 03:51:25;;;;;;;2.45;1.65;;;20.70;58.20;;;;;;5044986;28;20029;-64
2022/11/18 03:54:00;;;;;;;2.13;1.30;;;20.70;58.10;;;;;;5030625;28;20072;-61
2022/11/18 03:56:32;;;;;;;2.83;2.03;;;20.70;58.20;;;;;;5030013;28;20029;-61
2022/11/18 03:59:25;;;;;;;3.00;1.60;;;20.70;58.70;;;;;;5034140;28;20546;-61
2022/11/18 04:01:58;;;;;;;3.22;1.88;;;20.70;58.20;;;;;;5039168;28;20088;-62
2022/11/18 04:04:25;;;;;;;3.30;1.95;;;20.70;58.20;;;;;;5034738;28;20028;-61
2022/11/18 04:07:04;;;;;;;3.25;2.00;;;20.70;58.20;;;;;;5033455;28;20476;-61
2022/11/18 04:09:35;;;;;;;2.67;1.77;;;20.70;58.20;;;;;;5029234;28;20477;-62
2022/11/18 04:12:13;;;;;;;3.10;2.03;;;20.70;58.20;;;;;;5028142;28;20060;-61
2022/11/18 04:14:42;;;;;;;3.20;1.73;;;20.70;58.20;;;;;;5030383;28;20477;-63
2022/11/18 04:17:18;;;;;;;2.63;1.57;;;20.70;58.20;;;;;;5037573;28;20094;-61
2022/11/18 04:19:44;;;;;;;2.55;1.52;;;20.70;58.50;;;;;;5038249;28;20055;-61
2022/11/18 04:22:10;;;;;;;2.95;1.70;;;20.70;58.20;;;;;;5034320;28;20030;-61
2022/11/18 04:24:36;;;;;;;2.70;1.70;;;20.70;58.20;;;;;;5038534;28;20032;-61
2022/11/18 04:27:03;;;;;;;3.00;1.80;;;20.70;58.20;;;;;;5034862;28;20428;-62
2022/11/18 04:29:30;;;;;;;2.45;1.50;;;20.70;58.20;;;;;;5042747;28;20083;-61
2022/11/18 04:31:55;;;;;;;2.38;1.45;;;20.70;58.20;;;;;;5031554;28;20022;-60
2022/11/18 04:34:21;;;;;;;2.20;1.40;;;20.70;58.20;;;;;;5030020;28;20108;-63
2022/11/18 04:36:46;;;;;;;3.33;1.67;;;20.70;58.20;;;;;;5036210;28;20441;-62
2022/11/18 04:39:12;;;;;;;2.25;1.40;;;20.70;58.20;;;;;;5039265;28;20041;-62
2022/11/18 04:41:56;;;;;;;2.85;1.60;;;20.70;58.20;;;;;;5036465;28;20033;-61
2022/11/18 04:44:30;;;;;;;3.20;1.70;;;20.70;58.20;;;;;;5033708;28;20021;-61
2022/11/18 04:46:58;;;;;;;2.70;1.80;;;20.60;58.20;;;;;;5028924;28;20022;-61
2022/11/18 04:49:24;;;;;;;2.75;1.50;;;20.60;58.20;;;;;;5024712;28;20053;-61
2022/11/18 04:51:51;;;;;;;2.50;1.58;;;20.60;58.70;;;;;;5034513;28;20025;-61
2022/11/18 04:54:17;;;;;;;2.42;1.40;;;20.60;58.20;;;;;;5037385;28;20106;-61
2022/11/18 04:56:44;;;;;;;3.00;1.60;;;20.70;58.30;;;;;;5035679;28;20116;-60
2022/11/18 04:59:10;;;;;;;2.70;1.50;;;20.60;58.20;;;;;;5036402;28;20044;-62
2022/11/18 05:01:36;;;;;;;2.70;1.50;;;20.60;58.20;;;;;;5035512;28;20477;-61
2022/11/18 05:04:03;;;;;;;2.60;1.60;;;20.60;58.20;;;;;;5034907;28;20055;-62
2022/11/18 05:06:30;;;;;;;2.67;1.65;;;20.60;58.20;;;;;;5033487;28;20473;-62
2022/11/18 05:08:57;;;;;;;2.78;1.60;;;20.60;58.20;;;;;;5037462;28;20036;-62
2022/11/18 05:14:08;;;;;;;2.95;1.50;;;20.60;58.20;;;;;;5037661;28;20048;-62
2022/11/18 05:16:34;;;;;;;2.63;1.65;;;20.60;58.20;;;;;;5037568;28;20031;-63
2022/11/18 05:19:01;;;;;;;2.45;1.40;;;20.60;58.20;;;;;;5026308;28;20029;-63
2022/11/18 05:21:27;;;;;;;2.70;1.58;;;20.60;58.20;;;;;;5032856;28;20033;-63
2022/11/18 05:23:52;;;;;;;2.10;1.40;;;20.60;58.20;;;;;;5029254;28;20079;-62
2022/11/18 05:26:18;;;;;;;2.55;1.50;;;20.60;58.20;;;;;;5032118;28;20462;-62
2022/11/18 05:28:44;;;;;;;2.20;1.40;;;20.60;58.20;;;;;;5021356;28;20544;-62
2022/11/18 05:31:12;;;;;;;2.65;1.33;;;20.60;58.70;;;;;;5032113;28;20025;-60
2022/11/18 05:33:38;;;;;;;2.47;1.40;;;20.60;58.20;;;;;;5042918;28;20481;-61
2022/11/18 05:36:06;;;;;;;2.17;1.30;;;20.60;58.20;;;;;;5043774;28;20117;-63
2022/11/18 05:38:32;;;;;;;2.50;1.48;;;20.60;58.20;;;;;;5039121;28;20029;-61
2022/11/18 05:40:58;;;;;;;2.88;1.42;;;20.60;58.20;;;;;;5038166;28;20048;-62
2022/11/18 05:43:24;;;;;;;2.03;1.20;;;20.60;58.20;;;;;;5040413;28;20033;-63
2022/11/18 05:45:50;;;;;;;2.50;1.27;;;20.60;58.20;;;;;;5038456;28;20025;-62
2022/11/18 05:48:17;;;;;;;2.70;1.27;;;20.60;58.20;;;;;;5037184;28;20017;-63
2022/11/18 05:50:49;;;;;;;2.22;1.38;;;20.60;58.20;;;;;;5032951;28;20018;-63
2022/11/18 05:53:16;;;;;;;1.83;1.17;;;20.60;58.20;;;;;;5027675;28;20099;-61
2022/11/18 05:56:05;;;;;;;2.03;1.17;;;20.60;58.20;;;;;;5029080;28;20534;-61
2022/11/18 05:58:30;;;;;;;2.35;1.30;;;20.60;58.20;;;;;;5033902;28;20083;-61
2022/11/18 06:01:00;;;;;;;2.60;1.45;;;20.60;58.20;;;;;;5039420;28;20033;-61
2022/11/18 06:03:29;;;;;;;2.10;1.35;;;20.60;58.20;;;;;;5042797;28;20079;-62
2022/11/18 06:05:57;;;;;;;2.58;1.50;;;20.60;58.20;;;;;;5034028;28;20532;-61
2022/11/18 06:08:27;;;;;;;2.17;1.30;;;20.60;58.20;;;;;;5036410;28;20108;-61
2022/11/18 06:10:53;;;;;;;2.53;1.33;;;20.60;58.20;;;;;;5040614;28;20477;-62
2022/11/18 06:13:24;;;;;;;2.53;1.30;;;20.60;58.30;;;;;;5040948;28;20041;-62
2022/11/18 06:15:50;;;;;;;2.65;1.40;;;20.60;58.30;;;;;;5037732;28;20025;-62
2022/11/18 06:18:34;;;;;;;3.00;1.48;;;20.60;58.30;;;;;;5033438;28;20093;-63
2022/11/18 06:21:03;;;;;;;2.65;1.50;;;20.60;58.80;;;;;;5040601;28;20480;-62
2022/11/18 06:23:36;;;;;;;2.13;1.40;;;20.60;58.40;;;;;;5038543;28;20026;-62
2022/11/18 06:26:02;;;;;;;2.65;1.40;;;20.60;58.40;;;;;;5038140;28;20507;-62
2022/11/18 06:28:29;;;;;;;2.58;1.67;;;20.60;58.50;;;;;;5035182;28;20428;-62
2022/11/18 06:30:54;;;;;;;2.35;1.50;;;20.60;58.50;;;;;;5024438;28;20038;-63
2022/11/18 06:33:20;;;;;;;3.28;1.85;;;20.60;58.60;;;;;;5027289;28;20033;-61
2022/11/18 06:35:45;;;;;;;2.00;1.17;;;20.60;58.60;;;;;;5032955;28;20029;-61
2022/11/18 06:38:11;;;;;;;3.60;1.50;;;20.60;58.70;;;;;;5036597;28;20033;-62
2022/11/18 06:40:37;;;;;;;2.67;1.50;;;20.60;58.70;;;;;;5032425;28;20025;-62
2022/11/18 06:48:43;;;;;;;2.97;1.55;;;20.60;58.70;;;;;;5037718;28;20028;-61
2022/11/18 06:51:09;;;;;;;2.20;1.38;;;20.60;58.60;;;;;;5044550;28;20481;-62
2022/11/18 06:53:35;;;;;;;2.13;1.30;;;20.60;58.60;;;;;;5037947;28;20031;-62
2022/11/18 06:56:11;;;;;;;2.70;1.27;;;20.60;58.60;;;;;;5038136;28;20116;-62
2022/11/18 06:58:37;;;;;;;3.00;1.50;;;20.60;58.60;;;;;;5036554;28;20083;-61
2022/11/18 07:01:31;;;;;;;3.25;1.70;;;20.60;58.60;;;;;;5034675;28;20028;-61
2022/11/18 07:03:58;;;;;;;2.33;1.27;;;20.60;58.60;;;;;;5029397;28;20041;-61
2022/11/18 07:06:29;;;;;;;2.22;1.38;;;20.60;58.60;;;;;;5026866;28;20056;-61
2022/11/18 07:08:54;;;;;;;2.45;1.40;;;20.60;58.60;;;;;;5028755;28;20082;-61
2022/11/18 07:11:23;;;;;;;2.30;1.20;;;20.60;58.60;;;;;;5033547;28;20029;-62
2022/11/18 07:13:48;;;;;;;2.22;1.38;;;20.50;58.60;;;;;;5038577;28;20039;-62
2022/11/18 07:16:22;;;;;;;2.63;1.50;;;20.60;58.60;;;;;;5034243;28;20041;-62
2022/11/18 07:18:49;;;;;;;2.42;1.30;;;20.60;58.60;;;;;;5036366;28;20038;-62
2022/11/18 07:21:21;;;;;;;2.50;1.48;;;20.60;58.60;;;;;;5033630;28;20040;-61
2022/11/18 07:23:47;;;;;;;3.67;1.50;;;20.60;58.60;;;;;;5027834;28;20083;-61
2022/11/18 07:26:13;;;;;;;2.72;1.60;;;20.50;58.50;;;;;;5039389;28;20463;-61
2022/11/18 07:28:39;;;;;;;2.78;1.40;;;20.60;58.60;;;;;;5036966;28;20078;-62
2022/11/18 07:31:11;;;;;;;2.13;1.30;;;20.50;58.50;;;;;;5037693;28;20105;-61
2022/11/18 07:33:38;;;;;;;3.33;1.25;;;20.50;58.50;;;;;;5027654;28;20507;-61
2022/11/18 07:36:16;;;;;;;2.78;1.52;;;20.50;58.50;;;;;;5033665;28;20532;-62
2022/11/18 07:38:43;;;;;;;2.17;1.23;;;20.50;58.60;;;;;;5036396;28;20509;-61
2022/11/18 07:41:23;;;;;;;2.50;1.30;;;20.50;58.50;;;;;;5029458;28;20495;-61
2022/11/18 07:43:50;;;;;;;2.45;1.35;;;20.50;58.50;;;;;;5032117;28;20048;-62
2022/11/18 07:46:27;;;;;;;3.50;1.50;;;20.50;58.50;;;;;;5036458;28;20024;-61
2022/11/18 07:48:55;;;;;;;2.67;1.58;;;20.50;58.50;;;;;;5039821;28;20071;-61
2022/11/18 07:51:24;;;;;;;2.03;1.20;;;20.60;58.60;;;;;;5030717;28;20424;-61
2022/11/18 07:53:50;;;;;;;1.58;1.17;;;20.50;58.50;;;;;;5039358;28;20033;-61
2022/11/18 07:56:16;;;;;;;2.25;1.30;;;20.50;58.50;;;;;;5036427;28;20032;-62
2022/11/18 07:58:42;;;;;;;2.30;1.20;;;20.50;58.50;;;;;;5033891;28;20032;-61
2022/11/18 08:01:17;;;;;;;2.13;1.20;;;20.50;58.50;;;;;;5036532;28;20033;-61
2022/11/18 08:03:44;;;;;;;2.60;1.20;;;20.50;58.50;;;;;;5037644;28;20033;-61
2022/11/18 08:06:11;;;;;;;2.67;1.30;;;20.50;59.00;;;;;;5039427;28;20060;-61
2022/11/18 08:08:37;;;;;;;3.08;1.20;;;20.50;58.50;;;;;;5039359;28;20448;-60
2022/11/18 08:11:05;;;;;;;2.10;1.17;;;20.50;58.50;;;;;;5029901;28;20139;-62
2022/11/18 08:13:32;;;;;;;2.78;1.42;;;20.50;58.50;;;;;;5022810;28;20048;-61
2022/11/18 08:15:57;;;;;;;2.63;1.33;;;20.50;58.50;;;;;;5030583;28;20049;-61
2022/11/18 08:18:23;;;;;;;2.08;1.27;;;20.50;58.50;;;;;;5026882;28;20477;-61
2022/11/18 08:20:50;;;;;;;1.55;1.10;;;20.50;58.50;;;;;;5029107;28;20025;-62
2022/11/18 08:23:16;;;;;;;2.28;1.20;;;20.50;58.60;;;;;;5028994;28;20077;-61
2022/11/18 08:25:43;;;;;;;2.42;1.30;;;20.50;58.50;;;;;;5029128;28;20038;-62
2022/11/18 08:28:11;;;;;;;2.05;1.20;;;20.50;58.50;;;;;;5030779;28;20028;-61
2022/11/18 08:30:37;;;;;;;2.28;1.30;;;20.50;58.50;;;;;;5035430;28;20108;-62
2022/11/18 08:33:03;;;;;;;2.30;1.38;;;20.50;58.50;;;;;;5039166;28;20047;-61
2022/11/18 08:35:31;;;;;;;2.25;1.23;;;20.50;58.50;;;;;;5041371;28;20078;-61
2022/11/18 08:37:57;;;;;;;3.22;1.30;;;20.50;58.50;;;;;;5034109;28;20487;-62
2022/11/18 08:40:23;;;;;;;3.40;1.42;;;20.50;58.50;;;;;;5030305;28;20026;-62
2022/11/18 08:42:48;;;;;;;2.55;1.10;;;20.50;58.60;;;;;;5039232;28;20033;-62
2022/11/18 08:45:14;;;;;;;2.10;1.20;;;20.50;58.50;;;;;;5042665;28;20542;-61
2022/11/18 08:47:40;;;;;;;2.70;1.40;;;20.50;58.50;;;;;;5033156;28;20121;-62
2022/11/18 08:50:08;;;;;;;1.95;1.20;;;20.50;58.60;;;;;;5029745;28;20036;-62
2022/11/18 08:52:34;;;;;;;2.05;1.17;;;20.50;58.50;;;;;;5025766;28;20052;-61
2022/11/18 08:54:59;;;;;;;2.63;1.38;;;20.50;58.50;;;;;;5029132;28;20449;-61
2022/11/18 08:57:25;;;;;;;1.77;1.20;;;20.50;58.50;;;;;;5035173;28;20500;-62
2022/11/18 08:59:50;;;;;;;2.42;1.30;;;20.50;58.60;;;;;;5029835;28;20035;-63
2022/11/18 09:02:18;;;;;;;2.78;1.40;;;20.50;58.50;;;;;;5028553;28;20029;-62
2022/11/18 09:04:49;;;;;;;1.77;1.23;;;20.40;58.50;;;;;;5027255;28;20060;-61
2022/11/18 09:07:19;;;;;;;3.35;1.27;;;20.40;58.50;;;;;;5029020;28;20029;-61
2022/11/18 09:09:44;;;;;;;3.33;1.30;;;20.50;58.60;;;;;;5037075;28;20051;-62
2022/11/18 09:12:14;;;;;;;2.70;1.70;;;20.50;58.60;;;;;;5037320;28;20072;-62
2022/11/18 09:14:43;;;;;;;2.25;1.13;;;20.40;58.50;;;;;;5018335;28;20021;-61
2022/11/18 09:17:10;;;;;;;;;;;20.40;58.50;;;;;;5043193;28;20029;-62
2022/11/18 09:19:36;;;;;;;2.38;1.30;;;20.40;58.50;;;;;;5040116;28;19909;-61
2022/11/18 09:22:02;;;;;;;2.05;1.33;;;20.40;58.50;;;;;;5041366;28;20033;-62
2022/11/18 09:24:28;;;;;;;2.08;1.23;;;20.40;58.50;;;;;;5040101;28;20029;-62
2022/11/18 09:26:54;;;;;;;1.88;1.20;;;20.40;58.50;;;;;;5039207;28;20025;-60
2022/11/18 09:29:24;;;;;;;2.30;1.42;;;20.40;58.50;;;;;;5035401;28;20021;-62
2022/11/18 09:31:49;;;;;;;2.53;1.40;;;20.40;58.50;;;;;;5024242;28;20063;-62
2022/11/18 09:34:15;;;;;;;1.95;1.20;;;20.40;58.50;;;;;;5041759;28;20044;-62
2022/11/18 09:36:41;;;;;;;2.45;1.45;;;20.40;58.50;;;;;;5036010;28;20025;-62
2022/11/18 09:39:06;;;;;;;2.80;1.23;;;20.40;58.50;;;;;;5035257;28;20553;-62
2022/11/18 09:41:46;;;;;;;2.05;1.23;;;20.40;58.50;;;;;;5032320;28;20033;-62
2022/11/18 09:44:17;;;;;;;2.22;1.17;;;20.40;58.50;;;;;;5034162;28;20837;-62
2022/11/18 09:47:06;;;;;;;2.10;1.15;;;20.40;58.50;;;;;;5040117;28;20026;-62
2022/11/18 09:49:35;;;;;;;2.37;1.20;;;20.40;58.50;;;;;;5037232;28;20025;-62
2022/11/18 09:52:03;;;;;;;;;;;20.40;58.50;;;;;;5037988;28;20029;-62
2022/11/18 09:54:36;;;;;;;2.80;1.30;;;20.40;58.60;;;;;;5038593;28;19905;-62
2022/11/18 09:57:03;;;;;;;2.22;1.20;;;20.40;58.50;;;;;;5034843;28;20029;-62
2022/11/18 09:59:32;;;;;;;2.20;1.30;;;20.40;58.60;;;;;;5042340;28;20516;-61
2022/11/18 10:02:17;;;;;;;1.58;0.90;;;20.40;58.50;;;;;;5040234;28;20082;-63
2022/11/18 10:04:42;;;;;;;2.15;1.35;;;20.40;58.60;;;;;;5035136;28;20033;-61
2022/11/18 10:07:21;;;;;;;1.80;1.17;;;20.40;58.50;;;;;;5044702;28;20033;-61
2022/11/18 10:09:50;;;;;;;1.70;0.90;;;20.40;58.50;;;;;;5044281;28;20017;-62
2022/11/18 10:12:56;;;;;;;2.33;1.17;;;20.40;58.60;;;;;;5029720;28;20155;-63
2022/11/18 10:15:34;;;;;;;2.45;1.40;;;20.40;58.60;;;;;;5014160;28;20480;-62
2022/11/18 10:18:10;;;;;;;1.85;1.00;;;20.40;58.60;;;;;;5036687;28;20473;-61
2022/11/18 10:20:45;;;;;;;1.80;1.10;;;20.40;58.60;;;;;;5040001;28;20029;-61
2022/11/18 10:23:32;;;;;;;2.97;1.20;;;20.30;58.80;;;;;;5031411;28;20409;-62
2022/11/18 10:25:58;;;;;;;1.50;1.00;;;20.30;58.60;;;;;;5039480;28;20653;-62
2022/11/18 10:28:28;;;;;;;1.88;1.10;;;20.40;58.60;;;;;;5041860;28;20021;-62
2022/11/18 10:31:07;;;;;;;1.60;1.10;;;20.30;58.60;;;;;;5042109;28;20083;-61
2022/11/18 10:33:33;;;;;;;1.80;1.10;;;20.40;58.60;;;;;;5035992;28;20041;-62
2022/11/18 10:36:17;;;;;;;1.65;1.05;;;20.30;58.60;;;;;;5031336;28;20116;-62
2022/11/18 10:38:44;;;;;;;2.28;1.20;;;20.30;58.60;;;;;;5040138;28;20042;-61
2022/11/18 10:41:15;;;;;;;1.80;1.10;;;20.30;58.60;;;;;;5029752;28;20485;-62
2022/11/18 10:43:49;;;;;;;1.67;1.10;;;20.30;58.60;;;;;;5032973;28;20024;-63
2022/11/18 10:46:28;;;;;;;1.77;1.10;;;20.30;58.60;;;;;;5023523;28;20587;-61
2022/11/18 10:49:12;;;;;;;1.60;1.02;;;20.40;58.60;;;;;;5021792;28;20018;-63
2022/11/18 10:51:45;;;;;;;1.33;1.00;;;20.30;58.60;;;;;;5030564;28;20048;-62
2022/11/18 10:54:21;;;;;;;1.55;0.93;;;20.30;58.60;;;;;;5036506;28;20032;-63
2022/11/18 10:56:51;;;;;;;1.77;1.00;;;20.30;58.60;;;;;;5044863;28;20088;-62
2022/11/18 10:59:38;;;;;;;2.05;1.10;;;20.30;58.60;;;;;;5034406;28;20029;-62
2022/11/18 11:02:15;;;;;;;1.88;1.00;;;20.30;58.60;;;;;;5034174;28;20473;-62
2022/11/18 11:04:42;;;;;;;2.20;1.20;;;20.40;58.70;;;;;;5042957;28;20112;-63
2022/11/18 11:07:33;;;;;;;2.47;1.20;;;20.30;58.60;;;;;;5043740;28;20025;-62
2022/11/18 11:09:59;;;;;;;1.45;0.98;;;20.30;58.60;;;;;;5032503;28;20017;-62
2022/11/18 11:12:34;;;;;;;1.92;1.13;;;20.30;58.60;;;;;;5033055;28;20376;-62
2022/11/18 11:15:12;;;;;;;1.88;1.10;;;20.30;58.60;;;;;;5037002;28;20074;-61
2022/11/18 11:20:40;;;;;;;4.25;1.40;;;20.30;58.60;;;;;;5032204;28;20026;-63
2022/11/18 11:23:11;;;;;;;1.20;0.80;;;20.30;58.60;;;;;;5028479;28;20022;-62
2022/11/18 11:25:57;;;;;;;1.88;1.00;;;20.30;58.60;;;;;;5026428;28;20028;-62
2022/11/18 11:28:32;;;;;;;1.50;0.90;;;20.30;58.70;;;;;;5031577;28;20030;-62
2022/11/18 11:31:43;;;;;;;1.52;1.08;;;20.30;58.70;;;;;;5034536;28;20060;-63
2022/11/18 11:34:38;;;;;;;1.98;1.10;;;20.30;58.70;;;;;;5011826;28;20037;-63
2022/11/18 11:37:23;;;;;;;1.75;1.00;;;20.30;58.70;;;;;;5029770;28;20029;-62
2022/11/18 11:40:01;;;;;;;1.73;1.00;;;20.30;58.80;;;;;;5030110;28;20083;-62
2022/11/18 11:42:40;;;;;;;1.55;1.10;;;20.30;58.80;;;;;;5039985;28;20115;-62
2022/11/18 11:45:17;;;;;;;1.85;1.00;;;20.30;58.80;;;;;;5039405;28;20080;-62
2022/11/18 11:48:04;;;;;;;1.75;1.10;;;20.30;58.80;;;;;;5037064;28;20091;-62
2022/11/18 11:51:04;;;;;;;1.98;1.00;;;20.30;58.90;;;;;;5040033;28;20025;-62
2022/11/18 11:53:55;;;;;;;2.33;1.10;;;20.30;58.90;;;;;;5027327;28;20029;-63
2022/11/18 11:56:39;;;;;;;1.60;0.93;;;20.30;59.00;;;;;;5032365;28;20029;-62
2022/11/18 11:59:10;;;;;;;2.78;1.15;;;20.30;59.00;;;;;;5029825;28;20033;-61
2022/11/18 12:01:50;;;;;;;3.17;1.10;;;20.30;59.00;;;;;;5032230;28;20555;-62
2022/11/18 12:04:41;;;;;;;1.95;1.20;;;20.30;59.10;;;;;;5038638;28;20052;-62
2022/11/18 12:07:15;;;;;;;2.47;1.13;;;20.30;59.10;;;;;;5032499;28;20033;-61
2022/11/18 12:10:04;;;;;;;1.63;1.00;;;20.30;59.10;;;;;;5032947;28;20044;-61
2022/11/18 12:12:41;;;;;;;2.63;1.00;;;20.30;59.10;;;;;;5033713;28;20025;-63
2022/11/18 12:15:13;;;;;;;1.73;0.90;;;20.30;59.60;;;;;;5033610;28;20429;-61
2022/11/18 12:17:57;;;;;;;1.90;0.90;;;20.30;59.20;;;;;;5033753;28;20481;-61
2022/11/18 12:20:50;;;;;;;2.38;1.00;;;20.30;59.20;;;;;;5030220;28;20032;-63
2022/11/18 12:23:17;;;;;;;1.65;0.90;;;20.30;59.20;;;;;;5031037;28;20175;-62
2022/11/18 12:25:53;;;;;;;2.28;1.08;;;20.40;59.20;;;;;;5033208;28;20018;-64
2022/11/18 12:28:28;;;;;;;2.28;1.08;;;20.30;59.20;;;;;;5025001;28;20084;-64
2022/11/18 12:31:19;;;;;;;2.13;1.00;;;20.30;59.20;;;;;;5019927;28;20432;-62
2022/11/18 12:33:46;;;;;;;2.17;0.90;;;20.30;59.30;;;;;;5029070;28;20104;-63
2022/11/18 12:36:38;;;;;;;1.60;1.02;;;20.30;59.20;;;;;;5038601;28;20022;-62
2022/11/18 12:39:22;;;;;;;1.70;1.00;;;20.30;59.30;;;;;;5031893;28;20049;-62
2022/11/18 12:44:43;;;;;;;1.83;1.00;;;20.30;59.20;;;;;;5032942;28;20091;-63
2022/11/18 12:47:11;;;;;;;2.75;1.13;;;20.30;59.30;;;;;;5040499;28;20450;-62
2022/11/18 12:49:37;;;;;;;2.03;1.10;;;20.30;59.30;;;;;;5042132;28;20022;-62
2022/11/18 12:52:28;;;;;;;1.25;0.82;;;20.30;59.30;;;;;;5042432;28;20121;-62
2022/11/18 12:54:57;;;;;;;2.40;1.30;;;20.30;59.30;;;;;;5034166;28;20040;-64
2022/11/18 12:57:33;;;;;;;1.93;1.00;;;20.30;59.80;;;;;;5035740;28;20029;-63
2022/11/18 13:00:23;;;;;;;2.55;1.02;;;20.30;59.30;;;;;;5043394;28;20495;-64
2022/11/18 13:02:57;;;;;;;2.75;1.00;;;20.40;59.40;;;;;;5038255;28;20112;-64
2022/11/18 13:05:33;;;;;;;2.47;1.30;;;20.30;59.20;;;;;;5028614;28;20025;-64
2022/11/18 13:08:11;;;;;;;1.58;0.80;;;20.30;59.30;;;;;;5024892;28;20470;-63
2022/11/18 13:10:42;;;;;;;2.05;1.10;;;20.40;59.30;;;;;;5028369;28;20110;-64
2022/11/18 13:13:31;;;;;;;1.90;0.98;;;20.30;59.30;;;;;;5031707;28;20025;-62
2022/11/18 13:19:03;;;;;;;1.85;1.15;;;20.30;59.70;;;;;;5025556;28;20033;-63
2022/11/18 13:24:15;;;;;;;1.55;0.88;;;20.30;59.20;;;;;;5038070;28;20040;-63
2022/11/18 13:26:43;;;;;;;1.58;0.90;;;20.30;59.20;;;;;;5044331;28;20021;-62
2022/11/18 13:29:46;;;;;;;1.83;1.00;;;20.30;59.10;;;;;;5045370;28;20030;-63
2022/11/18 13:32:18;;;;;;;2.25;1.00;;;20.30;59.20;;;;;;4996060;28;20040;-63
2022/11/18 13:34:52;;;;;;;1.65;0.90;;;20.40;59.20;;;;;;5035444;28;20018;-62
2022/11/18 13:37:24;;;;;;;1.85;0.80;;;20.30;59.20;;;;;;5043870;28;20075;-62